sensor_id;sensor_type;location;lat;lon;timestamp;P1;durP1;ratioP1;P2;durP2;ratioP2
64210;SDS011;50528;48.514;14.394;2023-04-25T00:00:01;5.50;;;3.40;;
64210;SDS011;50528;48.514;14.394;2023-04-25T00:01:04;4.90;;;3.80;;
64210;SDS011;50528;48.514;14.394;2023-04-25T00:01:42;5.40;;;3.70;;
64210;SDS011;50528;48.514;14.394;2023-04-25T00:02:18;5.70;;;3.90;;
64210;SDS011;50528;48.514;14.394;2023-04-25T00:02:55;6.10;;;4.10;;
64210;SDS011;50528;48.514;14.394;2023-04-25T00:03:30;5.70;;;3.70;;
64210;SDS011;50528;48.514;14.394;2023-04-25T00:04:05;5.30;;;3.40;;
64210;SDS011;50528;48.514;14.394;2023-04-25T00:04:39;5.40;;;3.30;;
64210;SDS011;50528;48.514;14.394;2023-04-25T00:05:14;5.80;;;3.50;;
64210;SDS011;50528;48.514;14.394;2023-04-25T00:05:49;5.20;;;3.60;;
64210;SDS011;50528;48.514;14.394;2023-04-25T00:06:23;4.70;;;3.70;;
64210;SDS011;50528;48.514;14.394;2023-04-25T00:06:59;5.40;;;3.70;;
64210;SDS011;50528;48.514;14.394;2023-04-25T00:07:36;5.50;;;3.90;;
64210;SDS011;50528;48.514;14.394;2023-04-25T00:08:10;5.50;;;3.80;;
64210;SDS011;50528;48.514;14.394;2023-04-25T00:08:43;5.20;;;3.80;;
64210;SDS011;50528;48.514;14.394;2023-04-25T00:09:17;4.50;;;3.60;;
64210;SDS011;50528;48.514;14.394;2023-04-25T00:09:50;4.90;;;3.80;;
64210;SDS011;50528;48.514;14.394;2023-04-25T00:10:24;5.60;;;4.00;;
64210;SDS011;50528;48.514;14.394;2023-04-25T00:10:58;5.40;;;3.80;;
64210;SDS011;50528;48.514;14.394;2023-04-25T00:11:32;5.20;;;4.00;;
64210;SDS011;50528;48.514;14.394;2023-04-25T00:12:05;6.10;;;3.90;;
64210;SDS011;50528;48.514;14.394;2023-04-25T00:12:39;5.10;;;3.80;;
64210;SDS011;50528;48.514;14.394;2023-04-25T00:13:14;5.40;;;3.90;;
64210;SDS011;50528;48.514;14.394;2023-04-25T00:13:50;5.00;;;3.40;;
64210;SDS011;50528;48.514;14.394;2023-04-25T00:14:23;4.60;;;3.70;;
64210;SDS011;50528;48.514;14.394;2023-04-25T00:14:58;5.30;;;3.80;;
64210;SDS011;50528;48.514;14.394;2023-04-25T00:15:35;5.90;;;4.00;;
64210;SDS011;50528;48.514;14.394;2023-04-25T00:16:12;5.90;;;3.90;;
64210;SDS011;50528;48.514;14.394;2023-04-25T00:16:48;8.00;;;4.00;;
64210;SDS011;50528;48.514;14.394;2023-04-25T00:17:24;5.90;;;4.00;;
64210;SDS011;50528;48.514;14.394;2023-04-25T00:17:58;5.50;;;4.20;;
64210;SDS011;50528;48.514;14.394;2023-04-25T00:18:31;8.00;;;4.20;;
64210;SDS011;50528;48.514;14.394;2023-04-25T00:19:06;7.70;;;4.50;;
64210;SDS011;50528;48.514;14.394;2023-04-25T00:19:40;5.60;;;3.90;;
64210;SDS011;50528;48.514;14.394;2023-04-25T00:20:14;6.20;;;4.00;;
64210;SDS011;50528;48.514;14.394;2023-04-25T00:20:48;5.10;;;3.70;;
64210;SDS011;50528;48.514;14.394;2023-04-25T00:21:21;5.80;;;4.10;;
64210;SDS011;50528;48.514;14.394;2023-04-25T00:21:57;5.00;;;4.10;;
64210;SDS011;50528;48.514;14.394;2023-04-25T00:22:31;4.70;;;3.70;;
64210;SDS011;50528;48.514;14.394;2023-04-25T00:23:06;5.40;;;4.40;;
64210;SDS011;50528;48.514;14.394;2023-04-25T00:23:40;5.70;;;4.30;;
64210;SDS011;50528;48.514;14.394;2023-04-25T00:24:14;4.90;;;4.00;;
64210;SDS011;50528;48.514;14.394;2023-04-25T00:24:48;5.10;;;4.10;;
64210;SDS011;50528;48.514;14.394;2023-04-25T00:25:21;5.20;;;3.90;;
64210;SDS011;50528;48.514;14.394;2023-04-25T00:25:54;4.90;;;4.00;;
64210;SDS011;50528;48.514;14.394;2023-04-25T00:26:28;7.00;;;4.20;;
64210;SDS011;50528;48.514;14.394;2023-04-25T00:27:01;5.10;;;4.10;;
64210;SDS011;50528;48.514;14.394;2023-04-25T00:27:35;5.70;;;3.80;;
64210;SDS011;50528;48.514;14.394;2023-04-25T00:28:08;6.30;;;4.20;;
64210;SDS011;50528;48.514;14.394;2023-04-25T00:28:41;6.20;;;4.00;;
64210;SDS011;50528;48.514;14.394;2023-04-25T00:29:15;4.70;;;3.80;;
64210;SDS011;50528;48.514;14.394;2023-04-25T00:29:48;4.80;;;4.00;;
64210;SDS011;50528;48.514;14.394;2023-04-25T00:30:21;5.50;;;3.90;;
64210;SDS011;50528;48.514;14.394;2023-04-25T00:30:55;5.30;;;4.10;;
64210;SDS011;50528;48.514;14.394;2023-04-25T00:31:28;5.70;;;4.30;;
64210;SDS011;50528;48.514;14.394;2023-04-25T00:32:02;5.20;;;4.40;;
64210;SDS011;50528;48.514;14.394;2023-04-25T00:32:36;7.70;;;3.90;;
64210;SDS011;50528;48.514;14.394;2023-04-25T00:33:10;6.20;;;4.10;;
64210;SDS011;50528;48.514;14.394;2023-04-25T00:33:43;5.90;;;4.40;;
64210;SDS011;50528;48.514;14.394;2023-04-25T00:34:17;6.30;;;4.20;;
64210;SDS011;50528;48.514;14.394;2023-04-25T00:34:50;6.60;;;4.40;;
64210;SDS011;50528;48.514;14.394;2023-04-25T00:35:24;5.60;;;4.20;;
64210;SDS011;50528;48.514;14.394;2023-04-25T00:35:57;5.60;;;4.30;;
64210;SDS011;50528;48.514;14.394;2023-04-25T00:36:31;5.20;;;4.10;;
64210;SDS011;50528;48.514;14.394;2023-04-25T00:37:04;5.80;;;4.30;;
64210;SDS011;50528;48.514;14.394;2023-04-25T00:37:39;5.50;;;4.10;;
64210;SDS011;50528;48.514;14.394;2023-04-25T00:38:15;5.90;;;4.20;;
64210;SDS011;50528;48.514;14.394;2023-04-25T00:38:49;6.70;;;4.40;;
64210;SDS011;50528;48.514;14.394;2023-04-25T00:39:23;6.00;;;4.60;;
64210;SDS011;50528;48.514;14.394;2023-04-25T00:39:57;4.90;;;3.90;;
64210;SDS011;50528;48.514;14.394;2023-04-25T00:40:31;7.70;;;4.30;;
64210;SDS011;50528;48.514;14.394;2023-04-25T00:41:07;4.80;;;4.20;;
64210;SDS011;50528;48.514;14.394;2023-04-25T00:41:41;6.40;;;4.10;;
64210;SDS011;50528;48.514;14.394;2023-04-25T00:42:14;6.50;;;4.40;;
64210;SDS011;50528;48.514;14.394;2023-04-25T00:42:49;5.70;;;4.40;;
64210;SDS011;50528;48.514;14.394;2023-04-25T00:43:27;5.60;;;4.20;;
64210;SDS011;50528;48.514;14.394;2023-04-25T00:44:03;6.20;;;4.30;;
64210;SDS011;50528;48.514;14.394;2023-04-25T00:44:39;5.70;;;4.30;;
64210;SDS011;50528;48.514;14.394;2023-04-25T00:45:14;6.90;;;4.60;;
64210;SDS011;50528;48.514;14.394;2023-04-25T00:45:48;5.40;;;4.20;;
64210;SDS011;50528;48.514;14.394;2023-04-25T00:46:23;5.30;;;4.30;;
64210;SDS011;50528;48.514;14.394;2023-04-25T00:46:57;4.90;;;4.10;;
64210;SDS011;50528;48.514;14.394;2023-04-25T00:47:31;6.10;;;4.40;;
64210;SDS011;50528;48.514;14.394;2023-04-25T00:48:05;6.80;;;4.30;;
64210;SDS011;50528;48.514;14.394;2023-04-25T00:48:39;5.40;;;4.20;;
64210;SDS011;50528;48.514;14.394;2023-04-25T00:49:13;6.40;;;4.30;;
64210;SDS011;50528;48.514;14.394;2023-04-25T00:49:48;5.20;;;4.10;;
64210;SDS011;50528;48.514;14.394;2023-04-25T00:50:22;5.20;;;4.10;;
64210;SDS011;50528;48.514;14.394;2023-04-25T00:50:57;6.00;;;4.60;;
64210;SDS011;50528;48.514;14.394;2023-04-25T00:51:31;5.40;;;4.40;;
64210;SDS011;50528;48.514;14.394;2023-04-25T00:52:06;5.80;;;4.50;;
64210;SDS011;50528;48.514;14.394;2023-04-25T00:52:40;5.40;;;4.20;;
64210;SDS011;50528;48.514;14.394;2023-04-25T00:53:16;5.90;;;4.40;;
64210;SDS011;50528;48.514;14.394;2023-04-25T00:53:49;11.70;;;4.70;;
64210;SDS011;50528;48.514;14.394;2023-04-25T00:54:24;5.80;;;4.20;;
64210;SDS011;50528;48.514;14.394;2023-04-25T00:54:58;6.20;;;4.30;;
64210;SDS011;50528;48.514;14.394;2023-04-25T00:55:32;5.50;;;4.30;;
64210;SDS011;50528;48.514;14.394;2023-04-25T00:56:07;7.20;;;4.40;;
64210;SDS011;50528;48.514;14.394;2023-04-25T00:56:40;6.30;;;4.40;;
64210;SDS011;50528;48.514;14.394;2023-04-25T00:57:14;5.80;;;4.40;;
64210;SDS011;50528;48.514;14.394;2023-04-25T00:57:49;5.90;;;4.70;;
64210;SDS011;50528;48.514;14.394;2023-04-25T00:58:23;5.90;;;4.50;;
64210;SDS011;50528;48.514;14.394;2023-04-25T00:58:57;6.70;;;4.10;;
64210;SDS011;50528;48.514;14.394;2023-04-25T00:59:31;5.30;;;4.30;;
64210;SDS011;50528;48.514;14.394;2023-04-25T01:00:05;5.40;;;4.20;;
64210;SDS011;50528;48.514;14.394;2023-04-25T01:00:40;7.10;;;4.10;;
64210;SDS011;50528;48.514;14.394;2023-04-25T01:01:14;5.80;;;4.30;;
64210;SDS011;50528;48.514;14.394;2023-04-25T01:01:47;5.60;;;4.30;;
64210;SDS011;50528;48.514;14.394;2023-04-25T01:02:21;6.40;;;4.50;;
64210;SDS011;50528;48.514;14.394;2023-04-25T01:02:55;6.40;;;4.20;;
64210;SDS011;50528;48.514;14.394;2023-04-25T01:03:28;5.40;;;4.30;;
64210;SDS011;50528;48.514;14.394;2023-04-25T01:04:05;5.40;;;4.10;;
64210;SDS011;50528;48.514;14.394;2023-04-25T01:04:40;5.80;;;4.60;;
64210;SDS011;50528;48.514;14.394;2023-04-25T01:05:13;5.80;;;4.50;;
64210;SDS011;50528;48.514;14.394;2023-04-25T01:05:47;5.30;;;4.30;;
64210;SDS011;50528;48.514;14.394;2023-04-25T01:06:23;5.90;;;4.30;;
64210;SDS011;50528;48.514;14.394;2023-04-25T01:06:57;6.50;;;4.40;;
64210;SDS011;50528;48.514;14.394;2023-04-25T01:07:33;5.50;;;4.30;;
64210;SDS011;50528;48.514;14.394;2023-04-25T01:08:08;5.80;;;4.40;;
64210;SDS011;50528;48.514;14.394;2023-04-25T01:08:41;5.10;;;4.10;;
64210;SDS011;50528;48.514;14.394;2023-04-25T01:09:15;5.40;;;4.50;;
64210;SDS011;50528;48.514;14.394;2023-04-25T01:09:51;5.50;;;4.70;;
64210;SDS011;50528;48.514;14.394;2023-04-25T01:10:25;5.50;;;4.80;;
64210;SDS011;50528;48.514;14.394;2023-04-25T01:10:58;5.40;;;3.90;;
64210;SDS011;50528;48.514;14.394;2023-04-25T01:11:32;5.20;;;4.20;;
64210;SDS011;50528;48.514;14.394;2023-04-25T01:12:05;5.80;;;4.60;;
64210;SDS011;50528;48.514;14.394;2023-04-25T01:12:40;5.10;;;4.50;;
64210;SDS011;50528;48.514;14.394;2023-04-25T01:13:13;5.90;;;4.40;;
64210;SDS011;50528;48.514;14.394;2023-04-25T01:13:48;6.10;;;4.10;;
64210;SDS011;50528;48.514;14.394;2023-04-25T01:14:22;5.50;;;4.30;;
64210;SDS011;50528;48.514;14.394;2023-04-25T01:14:56;5.80;;;4.20;;
64210;SDS011;50528;48.514;14.394;2023-04-25T01:15:29;5.50;;;4.20;;
64210;SDS011;50528;48.514;14.394;2023-04-25T01:16:03;5.10;;;4.20;;
64210;SDS011;50528;48.514;14.394;2023-04-25T01:16:37;4.80;;;4.20;;
64210;SDS011;50528;48.514;14.394;2023-04-25T01:17:11;5.40;;;4.30;;
64210;SDS011;50528;48.514;14.394;2023-04-25T01:17:45;5.20;;;4.00;;
64210;SDS011;50528;48.514;14.394;2023-04-25T01:18:19;5.50;;;4.50;;
64210;SDS011;50528;48.514;14.394;2023-04-25T01:18:53;5.50;;;4.30;;
64210;SDS011;50528;48.514;14.394;2023-04-25T01:19:27;6.90;;;4.40;;
64210;SDS011;50528;48.514;14.394;2023-04-25T01:20:03;6.20;;;4.20;;
64210;SDS011;50528;48.514;14.394;2023-04-25T01:20:38;6.10;;;4.60;;
64210;SDS011;50528;48.514;14.394;2023-04-25T01:21:12;5.80;;;4.30;;
64210;SDS011;50528;48.514;14.394;2023-04-25T01:21:47;4.80;;;4.20;;
64210;SDS011;50528;48.514;14.394;2023-04-25T01:22:21;6.50;;;4.50;;
64210;SDS011;50528;48.514;14.394;2023-04-25T01:22:56;6.30;;;4.30;;
64210;SDS011;50528;48.514;14.394;2023-04-25T01:23:29;5.40;;;4.40;;
64210;SDS011;50528;48.514;14.394;2023-04-25T01:24:06;5.60;;;4.40;;
64210;SDS011;50528;48.514;14.394;2023-04-25T01:24:40;4.90;;;4.10;;
64210;SDS011;50528;48.514;14.394;2023-04-25T01:25:15;5.00;;;4.10;;
64210;SDS011;50528;48.514;14.394;2023-04-25T01:25:50;5.30;;;4.00;;
64210;SDS011;50528;48.514;14.394;2023-04-25T01:26:24;5.10;;;4.30;;
64210;SDS011;50528;48.514;14.394;2023-04-25T01:27:00;5.30;;;4.20;;
64210;SDS011;50528;48.514;14.394;2023-04-25T01:27:35;5.50;;;4.40;;
64210;SDS011;50528;48.514;14.394;2023-04-25T01:28:10;6.30;;;4.50;;
64210;SDS011;50528;48.514;14.394;2023-04-25T01:28:46;5.00;;;3.80;;
64210;SDS011;50528;48.514;14.394;2023-04-25T01:29:21;5.70;;;4.10;;
64210;SDS011;50528;48.514;14.394;2023-04-25T01:29:56;6.20;;;4.30;;
64210;SDS011;50528;48.514;14.394;2023-04-25T01:30:30;6.20;;;4.50;;
64210;SDS011;50528;48.514;14.394;2023-04-25T01:31:03;5.40;;;4.30;;
64210;SDS011;50528;48.514;14.394;2023-04-25T01:31:38;5.10;;;4.20;;
64210;SDS011;50528;48.514;14.394;2023-04-25T01:32:12;5.00;;;4.10;;
64210;SDS011;50528;48.514;14.394;2023-04-25T01:32:47;4.80;;;4.10;;
64210;SDS011;50528;48.514;14.394;2023-04-25T01:33:22;5.80;;;4.10;;
64210;SDS011;50528;48.514;14.394;2023-04-25T01:33:55;6.00;;;4.40;;
64210;SDS011;50528;48.514;14.394;2023-04-25T01:34:30;5.50;;;4.20;;
64210;SDS011;50528;48.514;14.394;2023-04-25T01:35:07;5.70;;;4.20;;
64210;SDS011;50528;48.514;14.394;2023-04-25T01:35:43;5.90;;;4.00;;
64210;SDS011;50528;48.514;14.394;2023-04-25T01:36:16;5.70;;;4.10;;
64210;SDS011;50528;48.514;14.394;2023-04-25T01:36:51;6.50;;;4.40;;
64210;SDS011;50528;48.514;14.394;2023-04-25T01:37:25;6.00;;;4.00;;
64210;SDS011;50528;48.514;14.394;2023-04-25T01:37:59;6.70;;;4.10;;
64210;SDS011;50528;48.514;14.394;2023-04-25T01:38:32;4.90;;;4.30;;
64210;SDS011;50528;48.514;14.394;2023-04-25T01:39:08;7.40;;;4.40;;
64210;SDS011;50528;48.514;14.394;2023-04-25T01:39:43;4.90;;;4.20;;
64210;SDS011;50528;48.514;14.394;2023-04-25T01:40:18;5.40;;;4.40;;
64210;SDS011;50528;48.514;14.394;2023-04-25T01:40:54;5.40;;;4.30;;
64210;SDS011;50528;48.514;14.394;2023-04-25T01:41:28;6.80;;;5.10;;
64210;SDS011;50528;48.514;14.394;2023-04-25T01:42:02;6.70;;;4.80;;
64210;SDS011;50528;48.514;14.394;2023-04-25T01:42:37;6.90;;;4.70;;
64210;SDS011;50528;48.514;14.394;2023-04-25T01:43:13;6.00;;;4.30;;
64210;SDS011;50528;48.514;14.394;2023-04-25T01:43:47;5.90;;;4.60;;
64210;SDS011;50528;48.514;14.394;2023-04-25T01:44:21;6.70;;;4.50;;
64210;SDS011;50528;48.514;14.394;2023-04-25T01:44:54;6.00;;;4.60;;
64210;SDS011;50528;48.514;14.394;2023-04-25T01:45:28;6.40;;;4.80;;
64210;SDS011;50528;48.514;14.394;2023-04-25T01:46:02;6.10;;;4.70;;
64210;SDS011;50528;48.514;14.394;2023-04-25T01:46:35;6.00;;;4.90;;
64210;SDS011;50528;48.514;14.394;2023-04-25T01:47:10;5.50;;;4.40;;
64210;SDS011;50528;48.514;14.394;2023-04-25T01:47:43;6.00;;;5.00;;
64210;SDS011;50528;48.514;14.394;2023-04-25T01:48:22;6.60;;;4.80;;
64210;SDS011;50528;48.514;14.394;2023-04-25T01:48:55;6.20;;;4.90;;
64210;SDS011;50528;48.514;14.394;2023-04-25T01:51:16;5.20;;;4.30;;
64210;SDS011;50528;48.514;14.394;2023-04-25T01:51:50;6.50;;;4.70;;
64210;SDS011;50528;48.514;14.394;2023-04-25T01:52:23;6.70;;;4.70;;
64210;SDS011;50528;48.514;14.394;2023-04-25T01:52:57;5.70;;;5.00;;
64210;SDS011;50528;48.514;14.394;2023-04-25T01:53:30;6.50;;;5.40;;
64210;SDS011;50528;48.514;14.394;2023-04-25T01:54:04;6.30;;;5.10;;
64210;SDS011;50528;48.514;14.394;2023-04-25T01:54:38;6.50;;;5.30;;
64210;SDS011;50528;48.514;14.394;2023-04-25T01:55:17;8.10;;;5.20;;
64210;SDS011;50528;48.514;14.394;2023-04-25T01:55:59;6.10;;;5.00;;
64210;SDS011;50528;48.514;14.394;2023-04-25T01:56:38;6.70;;;4.90;;
64210;SDS011;50528;48.514;14.394;2023-04-25T01:57:14;8.00;;;5.00;;
64210;SDS011;50528;48.514;14.394;2023-04-25T01:57:48;6.80;;;5.00;;
64210;SDS011;50528;48.514;14.394;2023-04-25T01:58:24;6.10;;;4.90;;
64210;SDS011;50528;48.514;14.394;2023-04-25T01:59:06;6.10;;;5.10;;
64210;SDS011;50528;48.514;14.394;2023-04-25T02:00:15;7.90;;;4.80;;
64210;SDS011;50528;48.514;14.394;2023-04-25T02:00:48;6.70;;;4.60;;
64210;SDS011;50528;48.514;14.394;2023-04-25T02:01:22;6.70;;;5.00;;
64210;SDS011;50528;48.514;14.394;2023-04-25T02:02:05;6.30;;;5.00;;
64210;SDS011;50528;48.514;14.394;2023-04-25T02:02:38;7.40;;;5.10;;
64210;SDS011;50528;48.514;14.394;2023-04-25T02:03:31;7.00;;;5.30;;
64210;SDS011;50528;48.514;14.394;2023-04-25T02:04:06;6.60;;;5.20;;
64210;SDS011;50528;48.514;14.394;2023-04-25T02:04:41;6.10;;;5.10;;
64210;SDS011;50528;48.514;14.394;2023-04-25T02:05:16;7.70;;;5.30;;
64210;SDS011;50528;48.514;14.394;2023-04-25T02:05:50;6.00;;;5.20;;
64210;SDS011;50528;48.514;14.394;2023-04-25T02:06:24;7.00;;;5.50;;
64210;SDS011;50528;48.514;14.394;2023-04-25T02:06:59;7.90;;;5.50;;
64210;SDS011;50528;48.514;14.394;2023-04-25T02:07:42;6.60;;;5.30;;
64210;SDS011;50528;48.514;14.394;2023-04-25T02:08:16;6.80;;;5.10;;
64210;SDS011;50528;48.514;14.394;2023-04-25T02:08:51;7.00;;;5.20;;
64210;SDS011;50528;48.514;14.394;2023-04-25T02:09:24;7.70;;;5.30;;
64210;SDS011;50528;48.514;14.394;2023-04-25T02:10:00;6.70;;;5.40;;
64210;SDS011;50528;48.514;14.394;2023-04-25T02:10:38;6.60;;;5.10;;
64210;SDS011;50528;48.514;14.394;2023-04-25T02:11:23;6.40;;;5.10;;
64210;SDS011;50528;48.514;14.394;2023-04-25T02:12:17;6.40;;;5.00;;
64210;SDS011;50528;48.514;14.394;2023-04-25T02:13:14;6.50;;;5.00;;
64210;SDS011;50528;48.514;14.394;2023-04-25T02:13:59;6.10;;;4.50;;
64210;SDS011;50528;48.514;14.394;2023-04-25T02:14:43;7.10;;;4.70;;
64210;SDS011;50528;48.514;14.394;2023-04-25T02:15:31;8.10;;;4.80;;
64210;SDS011;50528;48.514;14.394;2023-04-25T02:16:15;6.50;;;4.80;;
64210;SDS011;50528;48.514;14.394;2023-04-25T02:16:50;8.20;;;5.50;;
64210;SDS011;50528;48.514;14.394;2023-04-25T02:17:24;7.90;;;5.60;;
64210;SDS011;50528;48.514;14.394;2023-04-25T02:17:59;7.30;;;5.00;;
64210;SDS011;50528;48.514;14.394;2023-04-25T02:18:36;7.60;;;5.70;;
64210;SDS011;50528;48.514;14.394;2023-04-25T02:19:11;6.50;;;5.30;;
64210;SDS011;50528;48.514;14.394;2023-04-25T02:19:45;7.40;;;5.40;;
64210;SDS011;50528;48.514;14.394;2023-04-25T02:20:19;7.30;;;6.30;;
64210;SDS011;50528;48.514;14.394;2023-04-25T02:20:54;8.60;;;5.70;;
64210;SDS011;50528;48.514;14.394;2023-04-25T02:21:27;7.30;;;5.70;;
64210;SDS011;50528;48.514;14.394;2023-04-25T02:22:01;7.10;;;5.60;;
64210;SDS011;50528;48.514;14.394;2023-04-25T02:22:34;7.40;;;6.10;;
64210;SDS011;50528;48.514;14.394;2023-04-25T02:23:10;7.00;;;6.00;;
64210;SDS011;50528;48.514;14.394;2023-04-25T02:23:44;7.50;;;5.90;;
64210;SDS011;50528;48.514;14.394;2023-04-25T02:24:22;7.90;;;5.90;;
64210;SDS011;50528;48.514;14.394;2023-04-25T02:24:55;7.60;;;5.60;;
64210;SDS011;50528;48.514;14.394;2023-04-25T02:25:29;6.90;;;6.00;;
64210;SDS011;50528;48.514;14.394;2023-04-25T02:26:03;6.90;;;5.40;;
64210;SDS011;50528;48.514;14.394;2023-04-25T02:26:37;7.50;;;6.10;;
64210;SDS011;50528;48.514;14.394;2023-04-25T02:27:14;7.30;;;5.90;;
64210;SDS011;50528;48.514;14.394;2023-04-25T02:27:50;7.60;;;6.00;;
64210;SDS011;50528;48.514;14.394;2023-04-25T02:28:24;8.10;;;6.40;;
64210;SDS011;50528;48.514;14.394;2023-04-25T02:28:59;8.80;;;6.10;;
64210;SDS011;50528;48.514;14.394;2023-04-25T02:29:32;8.30;;;6.10;;
64210;SDS011;50528;48.514;14.394;2023-04-25T02:30:06;9.20;;;6.30;;
64210;SDS011;50528;48.514;14.394;2023-04-25T02:30:40;7.60;;;6.40;;
64210;SDS011;50528;48.514;14.394;2023-04-25T02:31:13;7.70;;;6.50;;
64210;SDS011;50528;48.514;14.394;2023-04-25T02:31:47;9.20;;;6.60;;
64210;SDS011;50528;48.514;14.394;2023-04-25T02:32:22;8.70;;;6.10;;
64210;SDS011;50528;48.514;14.394;2023-04-25T02:32:56;10.30;;;6.60;;
64210;SDS011;50528;48.514;14.394;2023-04-25T02:33:29;7.90;;;6.40;;
64210;SDS011;50528;48.514;14.394;2023-04-25T02:34:03;9.30;;;6.40;;
64210;SDS011;50528;48.514;14.394;2023-04-25T02:34:41;7.80;;;6.40;;
64210;SDS011;50528;48.514;14.394;2023-04-25T02:35:15;7.50;;;6.20;;
64210;SDS011;50528;48.514;14.394;2023-04-25T02:35:48;6.90;;;5.90;;
64210;SDS011;50528;48.514;14.394;2023-04-25T02:36:22;7.70;;;6.00;;
64210;SDS011;50528;48.514;14.394;2023-04-25T02:36:55;8.60;;;6.30;;
64210;SDS011;50528;48.514;14.394;2023-04-25T02:37:29;7.40;;;5.90;;
64210;SDS011;50528;48.514;14.394;2023-04-25T02:38:03;7.30;;;5.80;;
64210;SDS011;50528;48.514;14.394;2023-04-25T02:38:38;8.00;;;6.20;;
64210;SDS011;50528;48.514;14.394;2023-04-25T02:39:12;7.50;;;6.20;;
64210;SDS011;50528;48.514;14.394;2023-04-25T02:39:45;7.40;;;5.70;;
64210;SDS011;50528;48.514;14.394;2023-04-25T02:40:19;6.40;;;5.40;;
64210;SDS011;50528;48.514;14.394;2023-04-25T02:40:52;6.50;;;5.20;;
64210;SDS011;50528;48.514;14.394;2023-04-25T02:41:26;6.60;;;5.40;;
64210;SDS011;50528;48.514;14.394;2023-04-25T02:42:00;8.10;;;5.60;;
64210;SDS011;50528;48.514;14.394;2023-04-25T02:42:35;6.70;;;5.50;;
64210;SDS011;50528;48.514;14.394;2023-04-25T02:43:09;6.60;;;5.50;;
64210;SDS011;50528;48.514;14.394;2023-04-25T02:43:42;9.40;;;5.50;;
64210;SDS011;50528;48.514;14.394;2023-04-25T02:44:18;7.40;;;5.30;;
64210;SDS011;50528;48.514;14.394;2023-04-25T02:44:52;7.00;;;5.30;;
64210;SDS011;50528;48.514;14.394;2023-04-25T02:45:25;7.60;;;5.40;;
64210;SDS011;50528;48.514;14.394;2023-04-25T02:45:59;7.60;;;5.70;;
64210;SDS011;50528;48.514;14.394;2023-04-25T02:46:32;6.80;;;5.30;;
64210;SDS011;50528;48.514;14.394;2023-04-25T02:47:11;9.50;;;5.90;;
64210;SDS011;50528;48.514;14.394;2023-04-25T02:47:44;7.00;;;5.60;;
64210;SDS011;50528;48.514;14.394;2023-04-25T02:48:21;7.80;;;6.20;;
64210;SDS011;50528;48.514;14.394;2023-04-25T02:48:54;8.00;;;6.30;;
64210;SDS011;50528;48.514;14.394;2023-04-25T02:49:27;8.20;;;5.90;;
64210;SDS011;50528;48.514;14.394;2023-04-25T02:50:01;7.30;;;5.90;;
64210;SDS011;50528;48.514;14.394;2023-04-25T02:50:34;7.90;;;5.70;;
64210;SDS011;50528;48.514;14.394;2023-04-25T02:51:08;9.20;;;6.00;;
64210;SDS011;50528;48.514;14.394;2023-04-25T02:51:41;7.70;;;5.80;;
64210;SDS011;50528;48.514;14.394;2023-04-25T02:52:15;6.60;;;5.40;;
64210;SDS011;50528;48.514;14.394;2023-04-25T02:52:49;7.90;;;5.00;;
64210;SDS011;50528;48.514;14.394;2023-04-25T02:53:26;7.20;;;5.20;;
64210;SDS011;50528;48.514;14.394;2023-04-25T02:53:59;6.00;;;5.20;;
64210;SDS011;50528;48.514;14.394;2023-04-25T02:54:33;6.20;;;4.80;;
64210;SDS011;50528;48.514;14.394;2023-04-25T02:55:07;6.60;;;4.40;;
64210;SDS011;50528;48.514;14.394;2023-04-25T02:55:41;6.70;;;5.10;;
64210;SDS011;50528;48.514;14.394;2023-04-25T02:56:14;5.50;;;4.60;;
64210;SDS011;50528;48.514;14.394;2023-04-25T02:56:48;6.80;;;4.80;;
64210;SDS011;50528;48.514;14.394;2023-04-25T02:57:26;7.50;;;5.00;;
64210;SDS011;50528;48.514;14.394;2023-04-25T02:57:59;6.90;;;4.80;;
64210;SDS011;50528;48.514;14.394;2023-04-25T02:58:47;6.00;;;4.70;;
64210;SDS011;50528;48.514;14.394;2023-04-25T02:59:21;6.60;;;5.00;;
64210;SDS011;50528;48.514;14.394;2023-04-25T02:59:54;6.60;;;5.50;;
64210;SDS011;50528;48.514;14.394;2023-04-25T03:00:28;7.00;;;5.40;;
64210;SDS011;50528;48.514;14.394;2023-04-25T03:01:01;7.10;;;5.90;;
64210;SDS011;50528;48.514;14.394;2023-04-25T03:01:35;6.40;;;5.70;;
64210;SDS011;50528;48.514;14.394;2023-04-25T03:02:09;7.10;;;5.70;;
64210;SDS011;50528;48.514;14.394;2023-04-25T03:02:43;7.80;;;5.90;;
64210;SDS011;50528;48.514;14.394;2023-04-25T03:03:16;6.50;;;5.50;;
64210;SDS011;50528;48.514;14.394;2023-04-25T03:03:51;8.40;;;5.80;;
64210;SDS011;50528;48.514;14.394;2023-04-25T03:04:25;7.30;;;6.10;;
64210;SDS011;50528;48.514;14.394;2023-04-25T03:04:58;7.60;;;6.20;;
64210;SDS011;50528;48.514;14.394;2023-04-25T03:05:32;7.60;;;6.20;;
64210;SDS011;50528;48.514;14.394;2023-04-25T03:06:06;8.20;;;6.00;;
64210;SDS011;50528;48.514;14.394;2023-04-25T03:06:39;8.50;;;6.90;;
64210;SDS011;50528;48.514;14.394;2023-04-25T03:07:12;8.90;;;7.00;;
64210;SDS011;50528;48.514;14.394;2023-04-25T03:07:46;8.50;;;6.50;;
64210;SDS011;50528;48.514;14.394;2023-04-25T03:08:21;8.00;;;6.50;;
64210;SDS011;50528;48.514;14.394;2023-04-25T03:08:55;7.70;;;6.40;;
64210;SDS011;50528;48.514;14.394;2023-04-25T03:09:29;9.50;;;7.00;;
64210;SDS011;50528;48.514;14.394;2023-04-25T03:10:07;7.30;;;6.10;;
64210;SDS011;50528;48.514;14.394;2023-04-25T03:10:42;8.60;;;6.10;;
64210;SDS011;50528;48.514;14.394;2023-04-25T03:11:16;8.60;;;7.00;;
64210;SDS011;50528;48.514;14.394;2023-04-25T03:11:49;8.20;;;6.00;;
64210;SDS011;50528;48.514;14.394;2023-04-25T03:12:22;7.20;;;6.20;;
64210;SDS011;50528;48.514;14.394;2023-04-25T03:12:56;7.80;;;6.00;;
64210;SDS011;50528;48.514;14.394;2023-04-25T03:13:30;7.40;;;5.90;;
64210;SDS011;50528;48.514;14.394;2023-04-25T03:14:04;8.40;;;6.70;;
64210;SDS011;50528;48.514;14.394;2023-04-25T03:14:37;8.20;;;6.40;;
64210;SDS011;50528;48.514;14.394;2023-04-25T03:15:11;7.50;;;6.20;;
64210;SDS011;50528;48.514;14.394;2023-04-25T03:15:44;6.80;;;6.00;;
64210;SDS011;50528;48.514;14.394;2023-04-25T03:16:17;7.20;;;6.10;;
64210;SDS011;50528;48.514;14.394;2023-04-25T03:16:50;8.40;;;6.40;;
64210;SDS011;50528;48.514;14.394;2023-04-25T03:17:24;8.60;;;6.60;;
64210;SDS011;50528;48.514;14.394;2023-04-25T03:17:58;9.30;;;6.50;;
64210;SDS011;50528;48.514;14.394;2023-04-25T03:18:34;6.80;;;6.10;;
64210;SDS011;50528;48.514;14.394;2023-04-25T03:19:07;8.20;;;6.50;;
64210;SDS011;50528;48.514;14.394;2023-04-25T03:19:41;9.90;;;6.90;;
64210;SDS011;50528;48.514;14.394;2023-04-25T03:20:14;7.50;;;6.50;;
64210;SDS011;50528;48.514;14.394;2023-04-25T03:20:48;8.50;;;6.30;;
64210;SDS011;50528;48.514;14.394;2023-04-25T03:21:21;7.40;;;6.60;;
64210;SDS011;50528;48.514;14.394;2023-04-25T03:21:56;7.40;;;6.40;;
64210;SDS011;50528;48.514;14.394;2023-04-25T03:22:30;8.80;;;6.50;;
64210;SDS011;50528;48.514;14.394;2023-04-25T03:23:04;8.10;;;6.20;;
64210;SDS011;50528;48.514;14.394;2023-04-25T03:23:39;8.30;;;6.90;;
64210;SDS011;50528;48.514;14.394;2023-04-25T03:24:13;8.10;;;6.30;;
64210;SDS011;50528;48.514;14.394;2023-04-25T03:24:46;8.90;;;6.70;;
64210;SDS011;50528;48.514;14.394;2023-04-25T03:25:20;7.80;;;6.70;;
64210;SDS011;50528;48.514;14.394;2023-04-25T03:25:53;8.40;;;6.60;;
64210;SDS011;50528;48.514;14.394;2023-04-25T03:26:27;7.90;;;6.10;;
64210;SDS011;50528;48.514;14.394;2023-04-25T03:27:00;8.20;;;6.70;;
64210;SDS011;50528;48.514;14.394;2023-04-25T03:27:34;8.00;;;6.80;;
64210;SDS011;50528;48.514;14.394;2023-04-25T03:28:09;8.10;;;6.60;;
64210;SDS011;50528;48.514;14.394;2023-04-25T03:28:43;7.50;;;6.40;;